createdAt,value
2022-09-27T00:03:45.942Z,2.85
2022-09-27T00:08:50.594Z,2.22
2022-09-27T00:13:55.086Z,2.85
2022-09-27T00:19:01.164Z,2.65
2022-09-27T00:24:06.096Z,3.63
2022-09-27T00:29:10.703Z,2.47
2022-09-27T00:34:20.349Z,3.17
2022-09-27T00:39:25.778Z,2.75
2022-09-27T00:45:07.511Z,2.45
2022-09-27T00:50:22.632Z,4.20
2022-09-27T00:55:31.768Z,2.30
2022-09-27T01:00:35.535Z,1.55
2022-09-27T01:05:41.640Z,1.90
2022-09-27T01:10:55.308Z,1.77
2022-09-27T01:16:09.472Z,1.90
2022-09-27T01:21:41.069Z,2.20
2022-09-27T01:27:03.353Z,1.63
2022-09-27T01:32:13.402Z,1.60
2022-09-27T01:37:25.988Z,1.43
2022-09-27T01:42:33.388Z,1.63
2022-09-27T01:47:46.603Z,1.13
2022-09-27T01:53:13.619Z,1.55
2022-09-27T01:58:38.550Z,2.08
2022-09-27T02:03:49.026Z,1.65
2022-09-27T02:09:22.841Z,1.85
2022-09-27T02:14:45.709Z,2.20
2022-09-27T02:19:58.426Z,1.67
2022-09-27T02:25:16.579Z,8.65
2022-09-27T02:30:20.164Z,15.07
2022-09-27T02:35:33.378Z,22.92
2022-09-27T02:40:44.090Z,6.23
2022-09-27T02:46:02.318Z,2.35
2022-09-27T02:51:23.171Z,2.00
2022-09-27T02:56:33.403Z,2.33
2022-09-27T03:02:08.586Z,2.17
2022-09-27T03:07:27.492Z,2.77
2022-09-27T03:12:30.775Z,1.50
2022-09-27T03:17:34.354Z,2.10
2022-09-27T03:22:57.611Z,2.00
2022-09-27T03:28:01.029Z,1.52
2022-09-27T03:33:05.067Z,1.20
2022-09-27T03:38:12.769Z,1.43
2022-09-27T03:43:16.710Z,1.75
2022-09-27T03:48:27.139Z,1.85
2022-09-27T03:53:32.794Z,1.02
2022-09-27T03:58:36.117Z,0.70
2022-09-27T04:03:40.304Z,1.25
2022-09-27T04:09:07.904Z,1.07
2022-09-27T04:14:30.571Z,1.63
2022-09-27T04:19:54.044Z,1.85
2022-09-27T04:24:59.333Z,1.00
2022-09-27T04:30:12.866Z,2.65
2022-09-27T04:36:08.606Z,0.73
2022-09-27T04:41:17.027Z,1.13
2022-09-27T04:46:21.437Z,1.70
2022-09-27T04:51:24.777Z,1.77
2022-09-27T04:56:30.815Z,0.90
2022-09-27T05:01:34.179Z,1.15
2022-09-27T05:06:54.863Z,2.10
2022-09-27T05:12:08.906Z,1.00
2022-09-27T05:17:23.669Z,1.80
2022-09-27T05:22:47.357Z,2.25
2022-09-27T05:27:53.080Z,1.37
2022-09-27T05:32:56.909Z,1.00
2022-09-27T05:38:02.822Z,1.17
2022-09-27T05:43:10.652Z,2.00
2022-09-27T05:48:14.756Z,1.30
2022-09-27T05:53:32.925Z,0.88
2022-09-27T05:58:40.663Z,1.40
2022-09-27T06:03:51.479Z,1.17
2022-09-27T06:09:13.537Z,1.55
2022-09-27T06:14:19.587Z,1.80
2022-09-27T06:19:43.087Z,0.77
2022-09-27T06:24:46.348Z,1.50
2022-09-27T06:29:57.521Z,3.35
2022-09-27T06:35:22.718Z,1.55
2022-09-27T06:40:27.344Z,1.58
2022-09-27T06:45:51.143Z,1.02
2022-09-27T06:51:06.149Z,1.38
2022-09-27T06:56:09.474Z,0.30
2022-09-27T07:01:24.540Z,1.20
2022-09-27T07:06:46.899Z,0.70
2022-09-27T07:12:13.494Z,1.30
2022-09-27T07:17:19.337Z,1.03
2022-09-27T07:22:25.498Z,1.42
2022-09-27T07:27:38.379Z,1.38
2022-09-27T07:32:44.966Z,1.03
2022-09-27T07:37:48.769Z,0.70
2022-09-27T07:42:56.551Z,0.70
2022-09-27T07:48:02.384Z,0.68
2022-09-27T07:53:24.192Z,1.63
2022-09-27T07:58:33.754Z,2.73
2022-09-27T08:03:42.765Z,1.95
2022-09-27T08:08:47.498Z,2.33
2022-09-27T08:13:52.570Z,1.67
2022-09-27T08:19:01.297Z,2.50
2022-09-27T08:24:23.302Z,2.57
2022-09-27T08:29:42.000Z,1.47
2022-09-27T08:34:46.882Z,3.45
2022-09-27T08:39:50.374Z,0.70
2022-09-27T08:45:03.877Z,1.40
2022-09-27T08:50:24.778Z,1.50
2022-09-27T08:55:33.610Z,0.50
2022-09-27T09:00:37.024Z,2.63
2022-09-27T09:05:42.097Z,1.93
2022-09-27T09:11:10.486Z,1.08
2022-09-27T09:16:23.761Z,1.67
2022-09-27T09:21:38.032Z,3.78
2022-09-27T09:26:53.540Z,2.37
2022-09-27T09:32:04.347Z,0.63
2022-09-27T09:37:15.558Z,1.75
2022-09-27T09:42:25.602Z,0.90
2022-09-27T09:47:37.003Z,0.70
2022-09-27T09:52:48.224Z,1.10
2022-09-27T09:58:06.693Z,0.65
2022-09-27T10:03:19.715Z,0.70
2022-09-27T10:08:27.626Z,0.68
2022-09-27T10:13:47.405Z,0.60
2022-09-27T10:18:54.260Z,1.10
2022-09-27T10:24:11.360Z,0.57
2022-09-27T10:29:58.663Z,1.02
2022-09-27T10:35:24.031Z,0.45
2022-09-27T10:40:35.551Z,0.47
2022-09-27T10:45:44.767Z,1.00
2022-09-27T10:51:01.008Z,1.25
2022-09-27T10:56:35.954Z,0.40
2022-09-27T11:01:45.786Z,1.23
2022-09-27T11:07:12.949Z,1.93
2022-09-27T11:12:21.480Z,0.97
2022-09-27T11:17:41.063Z,1.77
2022-09-27T11:23:25.441Z,1.92
2022-09-27T11:28:41.376Z,1.02
2022-09-27T11:34:12.322Z,0.75
2022-09-27T11:39:24.514Z,2.30
2022-09-27T11:45:19.518Z,1.30
2022-09-27T11:50:41.726Z,3.70
2022-09-27T11:55:54.811Z,0.80
2022-09-27T12:01:14.629Z,1.40
2022-09-27T12:06:23.392Z,2.70
2022-09-27T12:11:31.698Z,2.05
2022-09-27T12:16:40.658Z,1.03
2022-09-27T12:21:45.503Z,1.83
2022-09-27T12:26:53.176Z,3.10
2022-09-27T12:32:08.327Z,0.88
2022-09-27T12:37:17.021Z,1.17
2022-09-27T12:42:25.304Z,0.70
2022-09-27T12:47:51.811Z,1.48
2022-09-27T12:53:04.457Z,1.00
2022-09-27T12:58:33.934Z,0.75
2022-09-27T13:03:56.637Z,2.08
2022-09-27T13:09:49.732Z,1.08
2022-09-27T13:15:01.584Z,1.30
2022-09-27T13:20:40.346Z,0.82
2022-09-27T13:26:24.812Z,0.60
2022-09-27T13:32:22.658Z,1.17
2022-09-27T13:37:59.579Z,0.30
2022-09-27T13:43:42.171Z,1.07
2022-09-27T13:49:07.383Z,1.27
2022-09-27T13:54:42.047Z,1.15
2022-09-27T13:59:52.730Z,0.40
2022-09-27T14:05:21.954Z,1.03
2022-09-27T14:10:28.605Z,0.32
2022-09-27T14:15:34.151Z,0.50
2022-09-27T14:20:43.361Z,0.40
2022-09-27T14:26:25.009Z,1.20
2022-09-27T14:31:29.592Z,2.60
2022-09-27T14:37:03.569Z,1.15
2022-09-27T14:42:22.084Z,0.43
2022-09-27T14:47:27.906Z,0.88
2022-09-27T14:52:34.873Z,1.50
2022-09-27T14:57:41.932Z,1.30
2022-09-27T15:02:45.992Z,1.20
2022-09-27T15:07:51.630Z,1.00
2022-09-27T15:13:00.029Z,1.50
2022-09-27T15:18:04.855Z,1.95
2022-09-27T15:23:08.113Z,4.22
2022-09-27T15:28:20.994Z,2.30
2022-09-27T15:33:27.403Z,4.25
2022-09-27T15:38:32.698Z,2.53
2022-09-27T15:43:40.169Z,1.40
2022-09-27T15:48:43.521Z,2.05
2022-09-27T15:53:46.876Z,2.25
2022-09-27T15:58:51.500Z,2.75
2022-09-27T16:03:54.783Z,1.40
2022-09-27T16:08:58.015Z,1.20
2022-09-27T16:14:02.662Z,1.40
2022-09-27T16:19:05.976Z,1.40
2022-09-27T16:24:09.509Z,1.50
2022-09-27T16:29:15.915Z,2.22
2022-09-27T16:34:19.294Z,0.50
2022-09-27T16:39:22.553Z,1.20
2022-09-27T16:44:27.817Z,1.93
2022-09-27T16:49:52.591Z,2.23
2022-09-27T16:54:55.831Z,5.32
2022-09-27T17:00:00.408Z,4.30
2022-09-27T17:05:03.687Z,6.47
2022-09-27T17:10:08.111Z,3.43
2022-09-27T17:15:13.822Z,2.53
2022-09-27T17:20:18.755Z,2.50
2022-09-27T17:25:22.919Z,1.13
2022-09-27T17:30:27.793Z,1.90
2022-09-27T17:35:31.641Z,1.43
2022-09-27T17:40:34.921Z,2.38
2022-09-27T17:45:39.556Z,1.92
2022-09-27T17:50:47.872Z,2.60
2022-09-27T17:55:51.261Z,1.90
2022-09-27T18:00:59.253Z,2.58
2022-09-27T18:06:08.247Z,2.27
2022-09-27T18:11:13.038Z,1.90
2022-09-27T18:16:19.736Z,1.90
2022-09-27T18:21:23.838Z,3.20
2022-09-27T18:26:29.158Z,2.47
2022-09-27T18:31:34.243Z,2.70
2022-09-27T18:36:40.730Z,2.37
2022-09-27T18:41:45.435Z,3.97
2022-09-27T18:46:52.433Z,3.93
2022-09-27T18:51:57.251Z,7.88
2022-09-27T18:57:00.792Z,2.63
2022-09-27T19:02:05.484Z,2.40
2022-09-27T19:07:09.257Z,3.43
2022-09-27T19:12:12.469Z,2.38
2022-09-27T19:17:17.068Z,3.10
2022-09-27T19:22:21.143Z,4.47
2022-09-27T19:27:24.758Z,2.15
2022-09-27T19:32:29.369Z,3.60
2022-09-27T19:37:33.262Z,2.08
2022-09-27T19:42:36.586Z,3.13
2022-09-27T19:47:41.209Z,3.00
2022-09-27T19:52:46.500Z,5.97
2022-09-27T19:57:49.796Z,4.00
2022-09-27T20:02:55.163Z,1.90
2022-09-27T20:07:58.466Z,1.40
2022-09-27T20:13:01.774Z,3.03
2022-09-27T20:18:09.186Z,2.85
2022-09-27T20:23:12.989Z,2.47
2022-09-27T20:28:16.232Z,2.10
2022-09-27T20:33:38.013Z,2.13
2022-09-27T20:38:41.756Z,1.58
2022-09-27T20:43:45.608Z,1.42
2022-09-27T20:48:53.861Z,1.50
2022-09-27T20:53:57.164Z,1.98
2022-09-27T20:59:01.881Z,2.57
2022-09-27T21:04:06.737Z,1.45
2022-09-27T21:09:10.677Z,1.90
2022-09-27T21:14:14.202Z,2.30
2022-09-27T21:19:19.314Z,1.70
2022-09-27T21:24:22.562Z,1.20
2022-09-27T21:29:25.900Z,1.53
2022-09-27T21:34:30.758Z,2.03
2022-09-27T21:39:33.944Z,2.40
2022-09-27T21:44:37.194Z,1.20
2022-09-27T21:49:41.774Z,1.50
2022-09-27T21:54:45.029Z,0.73
2022-09-27T21:59:48.247Z,1.20
2022-09-27T22:04:52.873Z,1.90
2022-09-27T22:09:56.129Z,1.55
2022-09-27T22:14:59.373Z,0.77
2022-09-27T22:20:04.115Z,1.95
2022-09-27T22:25:07.950Z,2.70
2022-09-27T22:30:12.035Z,1.58
2022-09-27T22:35:16.886Z,1.55
2022-09-27T22:40:20.489Z,0.97
2022-09-27T22:45:23.761Z,1.60
2022-09-27T22:50:28.396Z,1.45
2022-09-27T22:55:31.599Z,1.23
2022-09-27T23:00:34.956Z,3.30
2022-09-27T23:05:39.622Z,2.10
2022-09-27T23:10:43.149Z,1.92
2022-09-27T23:15:46.464Z,0.90
2022-09-27T23:20:51.189Z,1.30
2022-09-27T23:26:00.025Z,1.85
2022-09-27T23:31:08.669Z,1.17
2022-09-27T23:36:15.250Z,0.70
2022-09-27T23:41:19.227Z,0.90
2022-09-27T23:46:22.573Z,0.93
2022-09-27T23:51:27.308Z,1.03
2022-09-27T23:56:30.522Z,0.88
